Time;durP1;ratioP1;P1;durP2;ratioP2;P2;SDS_P1;SDS_P2;PMS_P1;PMS_P2;Temp;Humidity;BMP_temperature;BMP_pressure;BME280_temperature;BME280_humidity;BME280_pressure;Samples;Min_cycle;Max_cycle;Signal;HPM_P1;HPM_P2
2021/04/17 00:00:06;;;;;;;4.47;3.90;;;;;;;0.87;83.19;93077.42;1832879;78;21086;-73
2021/04/17 00:02:36;;;;;;;4.72;4.22;;;;;;;0.89;83.31;93063.12;1836085;77;21114;-74
2021/04/17 00:05:06;;;;;;;4.55;4.10;;;;;;;0.88;83.43;93074.95;1841200;77;21231;-74
2021/04/17 00:07:36;;;;;;;3.40;3.10;;;;;;;0.88;83.41;93072.84;1878658;75;21041;-72
2021/04/17 00:10:05;;;;;;;5.17;4.15;;;;;;;0.86;84.14;93065.70;1889678;75;21559;-74
2021/04/17 00:12:32;;;;;;;5.62;4.28;;;;;;;0.84;83.84;93076.76;1879464;76;21078;-73
2021/04/17 00:15:00;;;;;;;3.65;3.20;;;;;;;0.83;83.97;93074.41;1890352;75;21192;-74
2021/04/17 00:17:29;;;;;;;4.03;3.40;;;;;;;0.82;84.30;93077.65;1886960;75;21485;-73
2021/04/17 00:19:56;;;;;;;4.30;3.65;;;;;;;0.82;84.06;93072.30;1813916;78;21507;-73
2021/04/17 00:22:23;;;;;;;4.10;3.67;;;;;;;0.81;83.19;93069.97;1848671;77;21540;-73
2021/04/17 00:24:51;;;;;;;4.28;3.33;;;;;;;0.83;83.11;93071.73;1848627;77;21106;-73
2021/04/17 00:27:18;;;;;;;3.80;3.30;;;;;;;0.84;83.20;93081.34;1848703;77;21054;-74
2021/04/17 00:29:46;;;;;;;3.55;3.00;;;;;;;0.85;83.32;93082.33;1850265;77;21361;-74
2021/04/17 00:32:13;;;;;;;5.50;3.30;;;;;;;0.86;82.90;93073.73;1852060;77;21118;-73
2021/04/17 00:34:40;;;;;;;2.77;2.58;;;;;;;0.87;82.78;93077.98;1870431;74;21065;-72
2021/04/17 00:37:09;;;;;;;3.10;2.60;;;;;;;0.90;82.71;93078.61;1927800;74;21038;-73
2021/04/17 00:39:37;;;;;;;3.85;3.45;;;;;;;0.91;82.87;93083.64;1891244;75;21461;-73
2021/04/17 00:42:05;;;;;;;2.75;2.35;;;;;;;0.91;82.79;93088.22;1891070;75;22376;-74
2021/04/17 00:44:34;;;;;;;3.55;2.87;;;;;;;0.91;82.54;93082.30;1891016;75;21148;-73
2021/04/17 00:47:04;;;;;;;3.77;3.08;;;;;;;0.91;82.67;93084.98;1891015;75;21121;-73
2021/04/17 00:49:32;;;;;;;3.27;2.80;;;;;;;0.91;82.29;93090.91;1857893;75;21201;-73
2021/04/17 00:52:00;;;;;;;2.90;2.60;;;;;;;0.93;82.35;93082.73;1856891;75;21179;-73
2021/04/17 00:54:27;;;;;;;3.30;2.62;;;;;;;0.93;82.85;93085.97;1860304;75;22520;-73
2021/04/17 00:56:55;;;;;;;4.10;3.60;;;;;;;0.90;82.80;93094.14;1854242;76;21520;-73
2021/04/17 00:59:22;;;;;;;2.90;2.70;;;;;;;0.88;83.14;93091.02;1843379;77;21106;-74
2021/04/17 01:01:50;;;;;;;4.62;3.52;;;;;;;0.86;82.92;93085.21;1845132;77;21168;-72
2021/04/17 01:04:28;;;;;;;9.58;5.45;;;;;;;0.87;82.83;93094.05;1849835;77;21160;-73
2021/04/17 01:07:04;;;;;;;2.90;2.70;;;;;;;0.87;82.69;93087.35;1847179;77;21355;-72
2021/04/17 01:09:47;;;;;;;3.22;2.70;;;;;;;0.88;82.53;93082.98;1925517;74;21129;-74
2021/04/17 01:12:17;;;;;;;5.20;3.05;;;;;;;0.88;82.63;93092.92;1897466;74;21042;-74
2021/04/17 01:14:49;;;;;;;4.75;3.37;;;;;;;0.88;82.38;93098.27;1891068;75;21057;-73
2021/04/17 01:17:17;;;;;;;4.55;3.30;;;;;;;0.88;82.16;93097.70;1891049;75;21022;-74
2021/04/17 01:20:21;;;;;;;3.65;3.25;;;;;;;0.88;82.11;93095.03;1890987;75;21680;-74
2021/04/17 01:23:01;;;;;;;2.83;2.52;;;;;;;0.90;82.45;93098.69;1890951;75;21148;-74
2021/04/17 01:25:31;;;;;;;3.33;2.75;;;;;;;0.89;82.06;93103.27;1890811;75;21038;-73
2021/04/17 01:27:59;;;;;;;3.52;3.10;;;;;;;0.90;81.88;93107.53;1890964;75;38303;-74
2021/04/17 01:30:26;;;;;;;3.30;2.62;;;;;;;0.90;81.35;93099.50;1927355;74;21105;-73
2021/04/17 01:32:54;;;;;;;4.08;3.47;;;;;;;0.89;81.37;93099.25;1908632;74;21407;-74
2021/04/17 01:35:22;;;;;;;5.03;3.75;;;;;;;0.89;80.97;93106.52;1891103;75;21555;-72
2021/04/17 01:37:55;;;;;;;3.15;2.85;;;;;;;0.90;81.40;93102.70;1890990;75;21056;-75
2021/04/17 01:40:23;;;;;;;4.12;3.22;;;;;;;0.92;81.50;93095.13;1891127;75;21073;-74
2021/04/17 01:42:52;;;;;;;3.40;3.10;;;;;;;0.92;81.23;93106.61;1929227;74;21052;-74
2021/04/17 01:45:23;;;;;;;4.92;2.95;;;;;;;0.93;81.19;93102.80;1898750;74;21327;-75
2021/04/17 01:47:54;;;;;;;3.92;3.40;;;;;;;0.94;81.29;93096.89;1890991;75;21089;-72
2021/04/17 01:50:25;;;;;;;4.80;3.55;;;;;;;0.93;81.20;93101.47;1890861;75;21093;-74
2021/04/17 01:52:53;;;;;;;3.85;2.72;;;;;;;0.92;81.18;93096.47;1897874;74;21046;-74
2021/04/17 01:55:22;;;;;;;4.12;3.25;;;;;;;0.93;81.17;93098.02;1929244;74;21540;-74
2021/04/17 01:57:50;;;;;;;4.83;3.62;;;;;;;0.92;81.27;93093.79;1892713;74;21345;-73
2021/04/17 02:00:19;;;;;;;3.92;3.30;;;;;;;0.91;80.87;93098.37;1922424;74;21358;-73
2021/04/17 02:02:46;;;;;;;3.70;3.40;;;;;;;0.93;81.06;93094.00;1897188;74;21045;-74
2021/04/17 02:05:15;;;;;;;4.00;3.58;;;;;;;0.92;80.83;93089.77;1860914;77;21191;-74
2021/04/17 02:07:42;;;;;;;4.03;3.45;;;;;;;0.91;80.91;93094.35;1859577;74;21133;-75
2021/04/17 02:10:10;;;;;;;3.72;3.42;;;;;;;0.92;80.98;93101.25;1927964;74;21673;-74
2021/04/17 02:12:40;;;;;;;5.70;3.35;;;;;;;0.91;80.53;93105.06;1895649;74;21150;-73
2021/04/17 02:15:08;;;;;;;5.25;3.72;;;;;;;0.90;80.81;93102.17;1890950;75;21053;-75
2021/04/17 02:17:56;;;;;;;5.50;4.20;;;;;;;0.90;80.95;93106.72;1891001;75;21030;-73
2021/04/17 02:20:37;;;;;;;4.70;4.20;;;;;;;0.89;81.05;93102.50;1903388;74;21041;-74
2021/04/17 02:23:05;;;;;;;4.50;4.00;;;;;;;0.89;80.95;93097.92;1921903;74;21348;-73
2021/04/17 02:25:32;;;;;;;5.60;4.35;;;;;;;0.89;81.01;93101.16;1891148;75;21096;-73
2021/04/17 02:28:00;;;;;;;9.00;5.85;;;;;;;0.87;81.02;93101.52;1891506;75;21177;-74
2021/04/17 02:30:27;;;;;;;4.08;3.67;;;;;;;0.88;80.95;93096.94;1893702;75;21045;-73
2021/04/17 02:33:00;;;;;;;4.87;4.33;;;;;;;0.88;80.81;93105.73;1893486;75;21048;-73
2021/04/17 02:35:29;;;;;;;7.35;4.70;;;;;;;0.87;80.82;93102.08;1891536;75;21690;-73
2021/04/17 02:37:56;;;;;;;6.60;5.00;;;;;;;0.87;80.62;93110.11;1895431;74;21058;-72
2021/04/17 02:40:24;;;;;;;6.58;4.83;;;;;;;0.86;80.39;93101.27;1929573;74;21117;-73
2021/04/17 02:42:51;;;;;;;6.40;4.75;;;;;;;0.86;80.21;93091.91;1895830;74;21124;-73
2021/04/17 02:45:18;;;;;;;5.65;4.72;;;;;;;0.87;80.16;93104.19;1916124;74;21030;-74
2021/04/17 02:47:46;;;;;;;6.33;4.95;;;;;;;0.86;80.37;93110.64;1913660;74;22065;-73
2021/04/17 02:50:13;;;;;;;6.03;5.25;;;;;;;0.86;79.99;93109.87;1898100;74;21687;-73
2021/04/17 02:52:40;;;;;;;6.97;5.22;;;;;;;0.87;80.10;93102.85;1929576;74;21116;-73
2021/04/17 02:55:08;;;;;;;6.55;5.22;;;;;;;0.88;80.06;93103.06;1892487;74;21215;-73
2021/04/17 02:57:38;;;;;;;7.37;6.05;;;;;;;0.88;79.54;93103.06;1919850;74;21026;-74
2021/04/17 03:00:08;;;;;;;8.88;6.70;;;;;;;0.89;79.87;93102.50;1911480;74;21351;-74
2021/04/17 03:02:36;;;;;;;7.62;6.15;;;;;;;0.89;79.53;93099.82;1893540;75;21076;-74
2021/04/17 03:05:05;;;;;;;7.70;6.50;;;;;;;0.89;79.91;93103.27;1894461;74;21085;-74
2021/04/17 03:07:33;;;;;;;8.25;6.47;;;;;;;0.89;80.15;93099.25;1929385;74;21123;-74
2021/04/17 03:10:01;;;;;;;9.68;6.15;;;;;;;0.87;80.15;93094.82;1895744;74;21539;-73
2021/04/17 03:12:28;;;;;;;7.92;6.17;;;;;;;0.88;80.07;93095.59;1891313;75;21793;-74
2021/04/17 03:14:56;;;;;;;7.30;6.50;;;;;;;0.88;79.78;93097.70;1891156;75;21129;-74
2021/04/17 03:17:23;;;;;;;8.13;6.72;;;;;;;0.89;79.62;93099.82;1898347;74;21042;-73
2021/04/17 03:19:50;;;;;;;9.03;7.03;;;;;;;0.89;79.63;93101.16;1929399;74;21093;-75
2021/04/17 03:22:18;;;;;;;7.12;6.20;;;;;;;0.88;79.79;93095.59;1892085;74;21113;-74
2021/04/17 03:24:45;;;;;;;7.97;6.40;;;;;;;0.87;79.94;93104.19;1891251;75;21403;-75
2021/04/17 03:27:12;;;;;;;9.28;7.10;;;;;;;0.86;80.10;93106.62;1891228;75;21096;-73
2021/04/17 03:29:40;;;;;;;8.28;6.20;;;;;;;0.86;79.89;93119.23;1892209;75;21124;-76
2021/04/17 03:32:07;;;;;;;8.75;6.25;;;;;;;0.87;79.73;93114.90;1895459;74;21078;-76
2021/04/17 03:34:35;;;;;;;8.80;6.70;;;;;;;0.88;79.82;93116.45;1929560;74;21014;-75
2021/04/17 03:37:02;;;;;;;8.33;6.62;;;;;;;0.91;79.62;93113.09;1897564;74;22075;-75
2021/04/17 03:39:29;;;;;;;8.00;6.90;;;;;;;0.93;79.24;93115.42;1891136;75;21579;-75
2021/04/17 03:41:56;;;;;;;8.03;6.95;;;;;;;0.94;79.30;93120.98;1890995;75;21094;-74
2021/04/17 03:44:26;;;;;;;8.88;6.65;;;;;;;0.93;79.00;93114.08;1895434;74;21424;-74
2021/04/17 03:46:53;;;;;;;8.18;6.80;;;;;;;0.93;79.03;93117.53;1929274;74;21085;-74
2021/04/17 03:49:21;;;;;;;9.85;7.25;;;;;;;0.93;79.15;93120.77;1867825;74;21844;-74
2021/04/17 03:51:48;;;;;;;11.38;8.10;;;;;;;0.91;78.92;93112.31;1857180;77;21109;-73
2021/04/17 03:54:16;;;;;;;11.12;8.10;;;;;;;0.89;78.87;93116.66;1846642;77;21074;-74
2021/04/17 03:56:43;;;;;;;9.35;7.30;;;;;;;0.88;79.40;93115.67;1837189;77;21090;-73
2021/04/17 03:59:11;;;;;;;10.93;7.87;;;;;;;0.87;79.82;93117.58;1833007;78;21542;-74
2021/04/17 04:01:38;;;;;;;11.63;8.10;;;;;;;0.85;79.61;93115.78;1841169;78;21189;-73
2021/04/17 04:04:05;;;;;;;11.33;8.48;;;;;;;0.85;79.53;93106.41;1828355;78;21079;-75
2021/04/17 04:06:33;;;;;;;9.90;7.70;;;;;;;0.88;79.48;93113.00;1805570;78;21625;-74
2021/04/17 04:09:00;;;;;;;11.08;8.05;;;;;;;0.89;79.55;93113.20;1814269;77;21130;-74
2021/04/17 04:11:28;;;;;;;10.25;8.00;;;;;;;0.90;79.85;93117.43;1888264;74;21039;-74
2021/04/17 04:13:55;;;;;;;12.78;8.98;;;;;;;0.91;79.87;93108.30;1879062;76;21349;-74
2021/04/17 04:16:23;;;;;;;10.30;8.40;;;;;;;0.92;79.62;93121.90;1879056;76;21125;-75
2021/04/17 04:18:50;;;;;;;11.15;9.23;;;;;;;0.92;79.42;93114.64;1904022;74;21567;-74
2021/04/17 04:21:18;;;;;;;12.30;8.38;;;;;;;0.95;79.33;93113.97;1888433;74;21058;-75
2021/04/17 04:23:45;;;;;;;12.30;9.18;;;;;;;0.99;79.11;93115.97;1865434;74;21053;-74
2021/04/17 04:26:13;;;;;;;12.65;9.40;;;;;;;1.00;78.88;93115.61;1916833;74;22298;-75
2021/04/17 04:28:41;;;;;;;12.65;9.50;;;;;;;1.03;78.62;93123.53;1879419;74;21125;-74
2021/04/17 04:31:08;;;;;;;11.45;8.48;;;;;;;1.05;78.64;93124.72;1909948;74;21082;-74
2021/04/17 04:33:36;;;;;;;12.75;9.60;;;;;;;1.08;78.45;93120.03;1896765;74;21094;-75
2021/04/17 04:36:04;;;;;;;11.30;9.00;;;;;;;1.10;78.55;93131.19;1879082;76;21090;-75
2021/04/17 04:38:33;;;;;;;12.70;8.98;;;;;;;1.12;78.19;93129.50;1878704;76;21627;-74
2021/04/17 04:41:03;;;;;;;13.55;9.23;;;;;;;1.13;77.92;93131.05;1878955;76;21575;-75
2021/04/17 04:43:30;;;;;;;17.65;11.05;;;;;;;1.14;78.25;93130.72;1878996;76;21089;-75
2021/04/17 04:45:58;;;;;;;13.60;9.88;;;;;;;1.15;78.40;93126.92;1879058;76;21026;-75
2021/04/17 04:48:25;;;;;;;11.85;8.73;;;;;;;1.19;78.13;93127.78;1895489;74;21018;-74
2021/04/17 04:50:53;;;;;;;11.85;8.43;;;;;;;1.27;78.28;93133.33;1908735;74;21368;-75
2021/04/17 04:53:20;;;;;;;11.08;7.75;;;;;;;1.31;77.98;93136.88;1879138;76;21160;-75
2021/04/17 04:55:48;;;;;;;12.90;9.40;;;;;;;1.35;78.15;93139.09;1916404;74;21176;-76
2021/04/17 04:58:16;;;;;;;12.45;10.15;;;;;;;1.37;77.53;93126.14;1887947;74;21046;-76
2021/04/17 05:00:43;;;;;;;12.43;9.08;;;;;;;1.39;77.35;93127.36;1881521;76;21070;-75
2021/04/17 05:03:11;;;;;;;12.53;9.05;;;;;;;1.43;77.84;93130.13;1891470;74;22144;-74
2021/04/17 05:05:38;;;;;;;11.22;8.55;;;;;;;1.46;78.12;93133.44;1913845;74;21030;-75
2021/04/17 05:08:06;;;;;;;12.60;8.95;;;;;;;1.49;77.92;93137.34;1879402;76;21117;-75
2021/04/17 05:10:33;;;;;;;12.93;8.48;;;;;;;1.52;77.36;93133.98;1911712;74;21128;-74
2021/04/17 05:13:02;;;;;;;12.03;9.15;;;;;;;1.54;76.30;93130.38;1892580;74;21089;-75
2021/04/17 05:15:29;;;;;;;12.03;8.93;;;;;;;1.55;76.15;93142.11;1878887;76;21619;-75
2021/04/17 05:17:56;;;;;;;9.85;8.10;;;;;;;1.58;76.34;93139.28;1885461;74;21141;-74
2021/04/17 05:20:24;;;;;;;12.88;9.55;;;;;;;1.63;76.69;93146.52;1916459;74;21042;-74
2021/04/17 05:22:52;;;;;;;11.97;8.98;;;;;;;1.67;75.57;93147.95;1880293;74;21264;-73
2021/04/17 05:25:19;;;;;;;10.85;8.90;;;;;;;1.64;76.23;93145.95;1878976;76;21152;-75
2021/04/17 05:27:47;;;;;;;10.38;8.35;;;;;;;1.62;76.16;93147.65;1898252;74;21165;-75
2021/04/17 05:30:17;;;;;;;13.53;9.23;;;;;;;1.64;76.45;93146.73;1908889;74;21050;-75
2021/04/17 05:32:44;;;;;;;12.85;9.53;;;;;;;1.68;75.71;93144.14;1882202;74;21066;-75
2021/04/17 05:35:12;;;;;;;12.30;8.80;;;;;;;1.69;75.64;93143.81;1916526;74;21090;-76
2021/04/17 05:37:40;;;;;;;11.50;8.88;;;;;;;1.73;75.44;93139.08;1884606;74;21129;-76
2021/04/17 05:40:10;;;;;;;11.20;8.78;;;;;;;1.78;75.58;93143.63;1902447;74;21457;-75
2021/04/17 05:42:37;;;;;;;12.85;9.53;;;;;;;1.82;75.41;93149.08;1901289;74;21098;-76
2021/04/17 05:45:06;;;;;;;12.07;9.95;;;;;;;1.87;75.17;93150.92;1879107;76;21034;-75
2021/04/17 05:47:33;;;;;;;12.43;9.23;;;;;;;1.90;74.57;93148.13;1878955;76;21102;-74
2021/04/17 05:50:01;;;;;;;12.98;10.15;;;;;;;1.92;74.85;93143.98;1915478;74;21186;-76
2021/04/17 05:52:28;;;;;;;11.08;8.58;;;;;;;1.94;75.69;93151.66;1888739;74;21149;-74
2021/04/17 05:54:55;;;;;;;13.48;10.00;;;;;;;1.95;74.54;93145.16;1897880;74;21034;-75
2021/04/17 05:57:23;;;;;;;13.43;10.28;;;;;;;1.93;74.39;93144.75;1906765;74;21126;-75
2021/04/17 05:59:50;;;;;;;12.55;9.50;;;;;;;1.91;74.67;93144.30;1870531;74;21124;-75
2021/04/17 06:02:19;;;;;;;13.53;10.10;;;;;;;1.89;75.14;93146.00;1918597;74;21034;-74
2021/04/17 06:04:46;;;;;;;11.55;8.85;;;;;;;1.90;74.90;93152.14;1885151;74;21501;-76
2021/04/17 06:07:14;;;;;;;11.48;9.18;;;;;;;1.89;73.76;93144.66;1879020;76;21051;-73
2021/04/17 06:09:43;;;;;;;12.30;9.38;;;;;;;1.91;73.90;93152.34;1893466;74;21098;-74
2021/04/17 06:12:13;;;;;;;12.05;9.35;;;;;;;1.92;74.76;93157.95;1883638;75;21221;-75
2021/04/17 06:14:40;;;;;;;11.25;9.25;;;;;;;1.95;74.74;93159.91;1881685;76;21149;-75
2021/04/17 06:17:07;;;;;;;10.18;8.75;;;;;;;1.97;74.90;93159.59;1814230;76;22219;-74
2021/04/17 06:19:35;;;;;;;12.20;9.05;;;;;;;2.01;74.93;93158.54;1872234;75;21040;-76
2021/04/17 06:22:03;;;;;;;12.23;9.23;;;;;;;2.06;73.80;93155.58;1903786;74;21153;-74
2021/04/17 06:24:31;;;;;;;11.18;8.40;;;;;;;2.07;73.43;93162.53;1885085;76;21120;-75
2021/04/17 06:26:59;;;;;;;11.22;8.73;;;;;;;2.10;73.53;93162.38;1885145;76;21105;-75
2021/04/17 06:29:26;;;;;;;10.90;8.45;;;;;;;2.13;72.67;93160.34;1884774;76;21796;-74
2021/04/17 06:31:55;;;;;;;12.53;9.43;;;;;;;2.17;73.04;93163.31;1884049;76;21085;-75
2021/04/17 06:34:23;;;;;;;12.03;9.68;;;;;;;2.21;72.48;93167.42;1885016;76;21104;-75
2021/04/17 06:36:51;;;;;;;11.30;8.68;;;;;;;2.23;72.43;93168.44;1884769;76;21081;-75
2021/04/17 06:39:18;;;;;;;13.72;9.50;;;;;;;2.25;72.22;93158.89;1885108;76;21669;-75
2021/04/17 06:41:48;;;;;;;12.73;9.40;;;;;;;2.29;72.53;93160.31;1885071;76;22349;-75
2021/04/17 06:44:17;;;;;;;10.80;8.83;;;;;;;2.32;72.24;93162.30;1885562;76;21042;-73
2021/04/17 06:46:45;;;;;;;12.37;9.60;;;;;;;2.36;72.98;93164.50;1885885;76;21161;-74
2021/04/17 06:49:13;;;;;;;11.55;8.93;;;;;;;2.40;72.02;93164.80;1883724;76;21139;-74
2021/04/17 06:51:47;;;;;;;8.60;7.70;;;;;;;2.43;71.67;93161.41;1883092;76;21161;-74
2021/04/17 06:54:21;;;;;;;10.53;8.85;;;;;;;2.45;71.57;93163.77;1886737;74;21451;-75
2021/04/17 06:56:49;;;;;;;11.75;9.20;;;;;;;2.49;72.78;93163.84;1921423;74;21672;-74
2021/04/17 06:59:17;;;;;;;10.85;8.95;;;;;;;2.51;70.64;93162.92;1885240;74;21173;-74
2021/04/17 07:01:44;;;;;;;9.83;7.92;;;;;;;2.49;70.63;93169.22;1883071;76;21125;-74
2021/04/17 07:04:13;;;;;;;12.37;9.38;;;;;;;2.46;70.96;93165.31;1883325;75;21173;-75
2021/04/17 07:06:42;;;;;;;13.53;8.78;;;;;;;2.48;71.88;93160.36;1885029;76;22447;-74
2021/04/17 07:09:10;;;;;;;10.88;8.53;;;;;;;2.55;71.71;93162.43;1884727;76;21181;-75
2021/04/17 07:11:37;;;;;;;11.25;8.38;;;;;;;2.58;71.00;93163.08;1885157;76;21046;-75
2021/04/17 07:14:16;;;;;;;9.65;8.08;;;;;;;2.62;70.80;93157.22;1915878;74;21045;-74
2021/04/17 07:17:02;;;;;;;10.85;8.43;;;;;;;2.69;71.07;93157.37;1900745;74;21145;-75
2021/04/17 07:19:56;;;;;;;10.05;8.33;;;;;;;2.77;71.49;93151.58;1885235;76;21567;-74
2021/04/17 07:22:38;;;;;;;10.25;8.33;;;;;;;2.84;70.31;93159.80;1885075;76;21085;-75
2021/04/17 07:25:12;;;;;;;10.48;7.75;;;;;;;2.89;70.76;93165.64;1885076;76;21041;-75
2021/04/17 07:27:48;;;;;;;9.95;7.90;;;;;;;2.98;71.32;93164.69;1884978;76;21481;-74
2021/04/17 07:30:23;;;;;;;11.25;8.13;;;;;;;3.05;69.62;93161.58;1885162;76;21030;-75
2021/04/17 07:33:09;;;;;;;11.50;8.95;;;;;;;3.09;69.44;93163.77;1885224;76;21208;-76
2021/04/17 07:35:39;;;;;;;9.45;8.35;;;;;;;3.13;69.58;93156.55;1884821;76;21579;-74
2021/04/17 07:38:15;;;;;;;12.55;10.00;;;;;;;3.23;69.64;93165.16;1885038;76;21548;-74
2021/04/17 07:41:07;;;;;;;8.58;7.58;;;;;;;3.34;69.87;93168.83;1907686;74;21092;-76
2021/04/17 07:43:58;;;;;;;9.18;6.92;;;;;;;3.44;69.63;93167.48;1888032;74;21833;-77
2021/04/17 07:46:42;;;;;;;8.95;7.40;;;;;;;3.52;69.31;93167.25;1857324;77;21668;-76
2021/04/17 07:49:21;;;;;;;9.85;8.13;;;;;;;3.63;69.03;93164.77;1846588;77;21117;-77
2021/04/17 07:51:59;;;;;;;10.75;8.28;;;;;;;3.70;68.17;93167.58;1842388;77;21042;-77
2021/04/17 07:54:27;;;;;;;10.45;7.05;;;;;;;3.74;67.57;93169.77;1851533;77;21196;-77
2021/04/17 07:56:55;;;;;;;7.55;6.67;;;;;;;3.81;68.06;93169.12;1851662;77;21038;-76
2021/04/17 07:59:24;;;;;;;10.65;7.60;;;;;;;3.86;67.46;93166.89;1851330;77;21805;-76
2021/04/17 08:01:52;;;;;;;9.10;7.03;;;;;;;3.92;67.80;93166.05;1851358;77;21153;-76
2021/04/17 08:04:26;;;;;;;9.78;7.45;;;;;;;4.00;67.97;93173.09;1851405;77;21168;-77
2021/04/17 08:06:55;;;;;;;9.98;7.08;;;;;;;4.04;67.62;93168.55;1850580;77;21167;-76
2021/04/17 08:09:23;;;;;;;7.78;6.40;;;;;;;4.10;67.58;93168.46;1851416;77;21136;-76
2021/04/17 08:11:56;;;;;;;9.25;7.87;;;;;;;4.16;66.64;93170.27;1852303;77;21196;-77
2021/04/17 08:14:25;;;;;;;7.80;6.87;;;;;;;4.18;66.10;93174.73;1909135;74;21079;-75
2021/04/17 08:16:53;;;;;;;7.37;6.33;;;;;;;4.20;66.43;93172.44;1882364;74;21106;-76
2021/04/17 08:19:21;;;;;;;8.90;7.30;;;;;;;4.26;67.05;93171.02;1876563;74;21077;-76
2021/04/17 08:21:50;;;;;;;9.05;7.45;;;;;;;4.29;67.30;93164.91;1914999;74;21254;-76
2021/04/17 08:24:30;;;;;;;9.58;7.20;;;;;;;4.32;66.94;93168.20;1858165;77;21367;-77
2021/04/17 08:26:59;;;;;;;8.60;7.08;;;;;;;4.37;67.40;93166.57;1882014;76;21030;-78
2021/04/17 08:29:50;;;;;;;7.92;7.12;;;;;;;4.38;67.09;93163.30;1887392;75;21104;-75
2021/04/17 08:32:36;;;;;;;8.40;6.55;;;;;;;4.43;67.07;93167.02;1875554;74;21559;-77
2021/04/17 08:35:14;;;;;;;8.13;6.62;;;;;;;4.49;67.17;93166.94;1897043;74;21160;-77
2021/04/17 08:38:13;;;;;;;8.63;6.70;;;;;;;4.55;67.29;93161.45;1890981;74;21182;-76
2021/04/17 08:40:51;;;;;;;6.58;5.87;;;;;;;4.65;66.60;93166.00;1827721;77;21653;-75
2021/04/17 08:43:28;;;;;;;7.22;6.20;;;;;;;4.75;66.68;93166.15;1871568;75;21060;-77
2021/04/17 08:46:11;;;;;;;9.38;7.55;;;;;;;4.88;66.74;93159.95;1870364;75;21171;-76
2021/04/17 08:48:54;;;;;;;8.83;7.37;;;;;;;5.04;65.79;93151.69;1861951;77;21108;-76
2021/04/17 08:51:27;;;;;;;8.63;7.30;;;;;;;5.20;66.78;93152.86;1861118;76;21477;-76
2021/04/17 08:54:03;;;;;;;8.70;7.53;;;;;;;5.41;66.22;93148.27;1860550;76;21471;-76
2021/04/17 08:56:57;;;;;;;9.58;8.08;;;;;;;5.64;64.98;93152.17;1861963;76;21465;-77
2021/04/17 08:59:36;;;;;;;8.08;7.22;;;;;;;5.83;65.78;93147.95;1861693;77;21531;-77
2021/04/17 09:02:14;;;;;;;7.90;6.97;;;;;;;6.08;64.86;93142.79;1861760;76;21289;-77
2021/04/17 09:04:43;;;;;;;7.35;6.25;;;;;;;6.32;65.49;93146.28;1860472;77;21345;-76
2021/04/17 09:07:16;;;;;;;6.33;5.25;;;;;;;6.64;63.39;93139.54;1821481;78;21486;-76
2021/04/17 09:09:45;;;;;;;8.13;6.90;;;;;;;6.95;62.31;93138.94;1842344;76;21108;-77
2021/04/17 09:12:16;;;;;;;6.33;5.72;;;;;;;7.25;63.39;93138.69;1832092;78;21038;-76
2021/04/17 09:14:57;;;;;;;5.37;4.87;;;;;;;7.56;62.56;93136.50;1828681;78;21025;-76
2021/04/17 09:17:40;;;;;;;4.62;4.17;;;;;;;7.80;59.79;93128.23;1821773;77;21620;-76
2021/04/17 09:20:13;;;;;;;6.65;4.62;;;;;;;7.94;58.36;93135.02;1823525;75;21486;-75
2021/04/17 09:22:42;;;;;;;5.25;4.75;;;;;;;8.06;58.28;93125.75;1904390;75;21021;-75
2021/04/17 09:25:12;;;;;;;4.15;3.80;;;;;;;8.23;56.50;93134.45;1789948;77;21212;-75
2021/04/17 09:27:43;;;;;;;4.42;4.00;;;;;;;8.34;54.84;93130.97;1812631;79;21559;-75
2021/04/17 09:30:14;;;;;;;4.35;3.95;;;;;;;8.49;56.09;93125.77;1804350;79;21341;-74
2021/04/17 09:32:51;;;;;;;4.12;3.80;;;;;;;8.65;54.74;93127.52;1802836;78;21147;-75
2021/04/17 09:35:25;;;;;;;3.50;3.20;;;;;;;8.66;54.26;93122.86;1778511;78;21100;-75
2021/04/17 09:37:54;;;;;;;3.87;3.47;;;;;;;8.55;52.54;93118.03;1804514;79;21507;-75
2021/04/17 09:40:41;;;;;;;3.85;3.55;;;;;;;8.38;53.24;93122.29;1872558;76;21620;-75
2021/04/17 09:43:22;;;;;;;5.62;4.28;;;;;;;8.24;54.27;93117.64;1824961;76;21430;-75
2021/04/17 09:45:51;;;;;;;4.90;3.95;;;;;;;8.22;54.38;93119.95;1867228;76;21128;-75
2021/04/17 09:48:21;;;;;;;4.45;4.05;;;;;;;8.16;54.19;93114.71;1846191;76;21120;-75
2021/04/17 09:50:51;;;;;;;4.22;3.75;;;;;;;8.08;54.54;93116.64;1835656;76;21560;-76
2021/04/17 09:53:29;;;;;;;3.90;3.50;;;;;;;8.07;54.84;93118.40;1874349;76;21525;-76
2021/04/17 09:56:00;;;;;;;5.12;4.62;;;;;;;8.11;54.09;93112.40;1850515;77;21847;-76
2021/04/17 09:58:43;;;;;;;6.50;5.35;;;;;;;8.10;55.40;93108.16;1831200;78;26464;-76
2021/04/17 10:01:17;;;;;;;6.55;5.53;;;;;;;8.07;55.44;93113.75;1872479;76;21077;-77
2021/04/17 10:04:00;;;;;;;4.10;3.70;;;;;;;8.08;55.53;93111.81;1858665;76;21042;-77
2021/04/17 10:06:37;;;;;;;3.70;3.35;;;;;;;8.13;56.97;93112.22;1837159;76;21006;-77
2021/04/17 10:09:11;;;;;;;3.50;3.20;;;;;;;8.17;56.33;93112.22;1866422;76;21851;-75
2021/04/17 10:11:40;;;;;;;4.25;3.85;;;;;;;8.19;56.58;93112.01;1860539;76;21074;-76
2021/04/17 10:14:09;;;;;;;3.55;3.25;;;;;;;8.16;56.03;93112.00;1877918;76;21065;-75
2021/04/17 10:16:45;;;;;;;3.60;3.30;;;;;;;8.10;56.00;93113.56;1850403;77;21074;-75
2021/04/17 10:19:17;;;;;;;3.60;3.22;;;;;;;7.99;55.56;93108.91;1846787;76;21137;-72
2021/04/17 10:21:56;;;;;;;3.40;3.10;;;;;;;7.80;54.72;93109.28;1827790;76;21364;-74
2021/04/17 10:24:33;;;;;;;3.42;3.12;;;;;;;7.63;55.21;93110.78;1796931;78;21170;-73
2021/04/17 10:27:13;;;;;;;3.80;3.47;;;;;;;7.50;56.67;93109.61;1848919;76;21094;-74
2021/04/17 10:29:50;;;;;;;3.87;3.47;;;;;;;7.43;57.69;93111.70;1872423;76;21047;-73
2021/04/17 10:32:26;;;;;;;3.67;3.37;;;;;;;7.43;58.33;93111.70;1850583;76;21545;-74
2021/04/17 10:35:05;;;;;;;4.33;3.72;;;;;;;7.46;58.39;93112.88;1845318;77;21179;-74
2021/04/17 10:37:44;;;;;;;3.60;3.08;;;;;;;7.44;57.94;93113.83;1833221;77;21138;-76
2021/04/17 10:40:15;;;;;;;3.15;2.85;;;;;;;7.38;58.30;93115.38;1834634;77;21111;-76
2021/04/17 10:43:03;;;;;;;3.60;3.30;;;;;;;7.34;58.02;93114.59;1859318;76;21524;-76
2021/04/17 10:45:36;;;;;;;5.35;3.15;;;;;;;7.29;58.20;93116.48;1863883;76;21145;-76
2021/04/17 10:48:13;;;;;;;3.55;3.25;;;;;;;7.27;58.57;93116.69;1847479;77;21162;-74
2021/04/17 10:51:06;;;;;;;3.30;3.00;;;;;;;7.24;59.01;93107.98;1847753;76;21262;-75
2021/04/17 10:53:40;;;;;;;3.33;3.08;;;;;;;7.21;56.81;93106.80;1874478;76;22139;-74
2021/04/17 10:56:14;;;;;;;3.20;2.90;;;;;;;7.16;56.44;93107.76;1849135;77;21177;-74
2021/04/17 10:58:42;;;;;;;3.37;3.10;;;;;;;7.12;55.95;93108.33;1875841;75;21738;-76
2021/04/17 11:01:15;;;;;;;2.90;2.60;;;;;;;7.11;56.95;93113.52;1856783;76;21378;-74
2021/04/17 11:03:48;;;;;;;3.20;2.90;;;;;;;7.15;57.83;93113.75;1847615;77;21078;-74
2021/04/17 11:06:24;;;;;;;2.87;2.60;;;;;;;7.23;58.21;93114.55;1856608;76;21580;-76
2021/04/17 11:09:14;;;;;;;3.08;2.77;;;;;;;7.26;58.34;93108.38;1876984;76;21075;-75
2021/04/17 11:11:59;;;;;;;3.22;2.92;;;;;;;7.27;58.08;93113.40;1849653;77;21668;-74
2021/04/17 11:14:27;;;;;;;3.08;2.77;;;;;;;7.32;58.16;93115.53;1844420;77;22300;-75
2021/04/17 11:16:55;;;;;;;3.02;2.72;;;;;;;7.37;56.63;93108.39;1809383;79;21170;-75
2021/04/17 11:19:32;;;;;;;3.45;3.15;;;;;;;7.40;56.69;93113.05;1863815;76;21034;-74
2021/04/17 11:22:24;;;;;;;2.83;2.60;;;;;;;7.45;56.22;93114.81;1837478;76;21171;-74
2021/04/17 11:25:04;;;;;;;3.33;3.02;;;;;;;7.46;55.58;93110.95;1847775;76;21125;-75
2021/04/17 11:27:32;;;;;;;3.37;3.08;;;;;;;7.43;54.80;93112.29;1865868;76;21363;-75
2021/04/17 11:30:01;;;;;;;2.60;2.40;;;;;;;7.38;54.70;93103.97;1855710;75;21086;-74
2021/04/17 11:32:29;;;;;;;2.92;2.58;;;;;;;7.39;55.15;93108.22;1877956;76;21098;-75
2021/04/17 11:34:57;;;;;;;4.10;3.70;;;;;;;7.39;55.16;93108.22;1851119;76;21616;-75
2021/04/17 11:37:29;;;;;;;2.92;2.72;;;;;;;7.36;55.38;93104.15;1848898;75;21716;-74
2021/04/17 11:39:53;;;;;;;5.35;3.50;;;;;;;7.32;54.83;93096.61;1838195;75;21601;-74
2021/04/17 11:42:21;;;;;;;3.72;3.42;;;;;;;7.32;55.83;93098.73;1832510;78;21182;-74
2021/04/17 11:44:48;;;;;;;2.92;2.67;;;;;;;7.35;56.11;93100.67;1833941;76;21103;-74
2021/04/17 11:47:15;;;;;;;3.10;2.80;;;;;;;7.38;55.48;93097.80;1878145;76;21475;-75
2021/04/17 11:49:43;;;;;;;2.47;2.27;;;;;;;7.40;55.30;93093.53;1853539;76;21185;-75
2021/04/17 11:52:11;;;;;;;2.72;2.52;;;;;;;7.44;55.38;93097.02;1845581;77;22216;-75
2021/04/17 11:54:39;;;;;;;2.87;2.67;;;;;;;7.47;54.97;93094.91;1839766;77;21613;-75
2021/04/17 11:57:06;;;;;;;2.52;2.33;;;;;;;7.47;54.37;93099.55;1832021;78;21122;-75